<?xml version="1.0" encoding="UTF-8"?>
<gpx xmlns="http://www.topografix.com/GPX/1/1" xmlns:xsi="http://www.w3.org/2001/XMLSchema-instance" version="1.1" xsi:schemaLocation="http://www.topografix.com/GPX/1/1 http://www.topografix.com/GPX/1/1/gpx.xsd">
  <metadata>
    <name>Triathlon Festivál Fadd-Dombori</name>
  </metadata>
  <trk>
    <name>Triathlon Festivál Fadd-Dombori</name>
    <trkseg>
      <trkpt lat="46.437396" lon="18.871534">
        <ele>90.871391</ele>
        <time>2024-07-27T15:15:00.000Z</time>
      </trkpt>
      <trkpt lat="46.4374" lon="18.87154">
        <ele>90.871396</ele>
        <time>2024-07-27T15:15:00.000Z</time>
      </trkpt>
      <trkpt lat="46.437061" lon="18.871239">
        <ele>90.871384</ele>
        <time>2024-07-27T15:15:04.000Z</time>
      </trkpt>
      <trkpt lat="46.436564" lon="18.870826">
        <ele>90.861712</ele>
        <time>2024-07-27T15:15:10.000Z</time>
      </trkpt>
      <trkpt lat="46.436516" lon="18.870782">
        <ele>90.850679</ele>
        <time>2024-07-27T15:15:11.000Z</time>
      </trkpt>
      <trkpt lat="46.436034" lon="18.870422">
        <ele>90.754266</ele>
        <time>2024-07-27T15:15:17.000Z</time>
      </trkpt>
      <trkpt lat="46.435991" lon="18.870389">
        <ele>90.743751</ele>
        <time>2024-07-27T15:15:18.000Z</time>
      </trkpt>
      <trkpt lat="46.435971" lon="18.870365">
        <ele>90.738815</ele>
        <time>2024-07-27T15:15:18.000Z</time>
      </trkpt>
      <trkpt lat="46.435888" lon="18.870032">
        <ele>90.695305</ele>
        <time>2024-07-27T15:15:21.000Z</time>
      </trkpt>
      <trkpt lat="46.435862" lon="18.869804">
        <ele>90.66667</ele>
        <time>2024-07-27T15:15:23.000Z</time>
      </trkpt>
      <trkpt lat="46.436082" lon="18.869307">
        <ele>90.595273</ele>
        <time>2024-07-27T15:15:28.000Z</time>
      </trkpt>
      <trkpt lat="46.437235" lon="18.866592">
        <ele>90.101729</ele>
        <time>2024-07-27T15:15:52.000Z</time>
      </trkpt>
      <trkpt lat="46.437883" lon="18.86523">
        <ele>89.902741</ele>
        <time>2024-07-27T15:16:05.000Z</time>
      </trkpt>
      <trkpt lat="46.43789" lon="18.865219">
        <ele>89.900662</ele>
        <time>2024-07-27T15:16:05.000Z</time>
      </trkpt>
      <trkpt lat="46.438434" lon="18.864075">
        <ele>89.818182</ele>
        <time>2024-07-27T15:16:16.000Z</time>
      </trkpt>
      <trkpt lat="46.438648" lon="18.863748">
        <ele>89.822348</ele>
        <time>2024-07-27T15:16:19.000Z</time>
      </trkpt>
      <trkpt lat="46.438864" lon="18.86342">
        <ele>89.826431</ele>
        <time>2024-07-27T15:16:22.000Z</time>
      </trkpt>
      <trkpt lat="46.439132" lon="18.863049">
        <ele>89.831194</ele>
        <time>2024-07-27T15:16:26.000Z</time>
      </trkpt>
      <trkpt lat="46.439198" lon="18.862938">
        <ele>89.832576</ele>
        <time>2024-07-27T15:16:27.000Z</time>
      </trkpt>
      <trkpt lat="46.440084" lon="18.861748">
        <ele>89.689827</ele>
        <time>2024-07-27T15:16:40.000Z</time>
      </trkpt>
      <trkpt lat="46.440738" lon="18.860709">
        <ele>89.574225</ele>
        <time>2024-07-27T15:16:51.000Z</time>
      </trkpt>
      <trkpt lat="46.441084" lon="18.86024">
        <ele>89.62465</ele>
        <time>2024-07-27T15:16:56.000Z</time>
      </trkpt>
      <trkpt lat="46.441262" lon="18.860021">
        <ele>89.649522</ele>
        <time>2024-07-27T15:16:59.000Z</time>
      </trkpt>
      <trkpt lat="46.442087" lon="18.858959">
        <ele>89.759485</ele>
        <time>2024-07-27T15:17:11.000Z</time>
      </trkpt>
      <trkpt lat="46.442215" lon="18.858804">
        <ele>89.767758</ele>
        <time>2024-07-27T15:17:13.000Z</time>
      </trkpt>
      <trkpt lat="46.444157" lon="18.856652">
        <ele>89.683646</ele>
        <time>2024-07-27T15:17:40.000Z</time>
      </trkpt>
      <trkpt lat="46.444726" lon="18.856111">
        <ele>89.574033</ele>
        <time>2024-07-27T15:17:48.000Z</time>
      </trkpt>
      <trkpt lat="46.446179" lon="18.854976">
        <ele>89.56021</ele>
        <time>2024-07-27T15:18:06.000Z</time>
      </trkpt>
      <trkpt lat="46.446216" lon="18.854943">
        <ele>89.560652</ele>
        <time>2024-07-27T15:18:06.000Z</time>
      </trkpt>
      <trkpt lat="46.446526" lon="18.854645">
        <ele>89.59036</ele>
        <time>2024-07-27T15:18:10.000Z</time>
      </trkpt>
      <trkpt lat="46.44672" lon="18.854361">
        <ele>89.663481</ele>
        <time>2024-07-27T15:18:13.000Z</time>
      </trkpt>
      <trkpt lat="46.446951" lon="18.853854">
        <ele>89.77774</ele>
        <time>2024-07-27T15:18:18.000Z</time>
      </trkpt>
      <trkpt lat="46.447056" lon="18.853483">
        <ele>89.85075</ele>
        <time>2024-07-27T15:18:21.000Z</time>
      </trkpt>
      <trkpt lat="46.44712" lon="18.853109">
        <ele>89.924253</ele>
        <time>2024-07-27T15:18:24.000Z</time>
      </trkpt>
      <trkpt lat="46.447123" lon="18.852805">
        <ele>89.981178</ele>
        <time>2024-07-27T15:18:26.000Z</time>
      </trkpt>
      <trkpt lat="46.44707" lon="18.852123">
        <ele>90.033314</ele>
        <time>2024-07-27T15:18:31.000Z</time>
      </trkpt>
      <trkpt lat="46.446833" lon="18.85139">
        <ele>89.989958</ele>
        <time>2024-07-27T15:18:37.000Z</time>
      </trkpt>
      <trkpt lat="46.444415" lon="18.846303">
        <ele>89.678391</ele>
        <time>2024-07-27T15:19:24.000Z</time>
      </trkpt>
      <trkpt lat="46.444217" lon="18.845696">
        <ele>89.68081</ele>
        <time>2024-07-27T15:19:29.000Z</time>
      </trkpt>
      <trkpt lat="46.444137" lon="18.845108">
        <ele>89.780513</ele>
        <time>2024-07-27T15:19:34.000Z</time>
      </trkpt>
      <trkpt lat="46.444158" lon="18.844663">
        <ele>89.854272</ele>
        <time>2024-07-27T15:19:37.000Z</time>
      </trkpt>
      <trkpt lat="46.444152" lon="18.844628">
        <ele>89.859995</ele>
        <time>2024-07-27T15:19:37.000Z</time>
      </trkpt>
      <trkpt lat="46.444257" lon="18.844113">
        <ele>89.951744</ele>
        <time>2024-07-27T15:19:41.000Z</time>
      </trkpt>
      <trkpt lat="46.444443" lon="18.843567">
        <ele>90.05417</ele>
        <time>2024-07-27T15:19:46.000Z</time>
      </trkpt>
      <trkpt lat="46.445727" lon="18.841027">
        <ele>90.842717</ele>
        <time>2024-07-27T15:20:10.000Z</time>
      </trkpt>
      <trkpt lat="46.445902" lon="18.840737">
        <ele>90.88127</ele>
        <time>2024-07-27T15:20:13.000Z</time>
      </trkpt>
      <trkpt lat="46.445911" lon="18.840717">
        <ele>90.884507</ele>
        <time>2024-07-27T15:20:13.000Z</time>
      </trkpt>
      <trkpt lat="46.446089" lon="18.840501">
        <ele>90.917006</ele>
        <time>2024-07-27T15:20:16.000Z</time>
      </trkpt>
      <trkpt lat="46.448939" lon="18.837214">
        <ele>90.841665</ele>
        <time>2024-07-27T15:20:56.000Z</time>
      </trkpt>
      <trkpt lat="46.449716" lon="18.836384">
        <ele>90.621126</ele>
        <time>2024-07-27T15:21:07.000Z</time>
      </trkpt>
      <trkpt lat="46.449895" lon="18.836196">
        <ele>90.609112</ele>
        <time>2024-07-27T15:21:09.000Z</time>
      </trkpt>
      <trkpt lat="46.450278" lon="18.835722">
        <ele>90.625467</ele>
        <time>2024-07-27T15:21:15.000Z</time>
      </trkpt>
      <trkpt lat="46.450656" lon="18.835077">
        <ele>90.643585</ele>
        <time>2024-07-27T15:21:21.000Z</time>
      </trkpt>
      <trkpt lat="46.450803" lon="18.834425">
        <ele>90.65869</ele>
        <time>2024-07-27T15:21:26.000Z</time>
      </trkpt>
      <trkpt lat="46.450849" lon="18.833926">
        <ele>90.757702</ele>
        <time>2024-07-27T15:21:30.000Z</time>
      </trkpt>
      <trkpt lat="46.450805" lon="18.833439">
        <ele>90.879387</ele>
        <time>2024-07-27T15:21:34.000Z</time>
      </trkpt>
      <trkpt lat="46.450739" lon="18.832984">
        <ele>90.995069</ele>
        <time>2024-07-27T15:21:38.000Z</time>
      </trkpt>
      <trkpt lat="46.45053" lon="18.832392">
        <ele>91.162186</ele>
        <time>2024-07-27T15:21:43.000Z</time>
      </trkpt>
      <trkpt lat="46.450229" lon="18.831612">
        <ele>91.355976</ele>
        <time>2024-07-27T15:21:50.000Z</time>
      </trkpt>
      <trkpt lat="46.449392" lon="18.829406">
        <ele>91.629699</ele>
        <time>2024-07-27T15:22:09.000Z</time>
      </trkpt>
      <trkpt lat="46.449472" lon="18.829279">
        <ele>91.59214</ele>
        <time>2024-07-27T15:22:10.000Z</time>
      </trkpt>
      <trkpt lat="46.449531" lon="18.829196">
        <ele>91.564605</ele>
        <time>2024-07-27T15:22:11.000Z</time>
      </trkpt>
      <trkpt lat="46.449663" lon="18.829126">
        <ele>91.510826</ele>
        <time>2024-07-27T15:22:13.000Z</time>
      </trkpt>
      <trkpt lat="46.449868" lon="18.829288">
        <ele>91.434863</ele>
        <time>2024-07-27T15:22:16.000Z</time>
      </trkpt>
      <trkpt lat="46.450288" lon="18.829596">
        <ele>91.271266</ele>
        <time>2024-07-27T15:22:21.000Z</time>
      </trkpt>
      <trkpt lat="46.450673" lon="18.829704">
        <ele>91.135733</ele>
        <time>2024-07-27T15:22:25.000Z</time>
      </trkpt>
      <trkpt lat="46.45131" lon="18.829776">
        <ele>90.779143</ele>
        <time>2024-07-27T15:22:32.000Z</time>
      </trkpt>
      <trkpt lat="46.453927" lon="18.829574">
        <ele>89.284528</ele>
        <time>2024-07-27T15:23:01.000Z</time>
      </trkpt>
      <trkpt lat="46.454084" lon="18.829582">
        <ele>89.21424</ele>
        <time>2024-07-27T15:23:03.000Z</time>
      </trkpt>
      <trkpt lat="46.457084" lon="18.829418">
        <ele>89.036241</ele>
        <time>2024-07-27T15:23:36.000Z</time>
      </trkpt>
      <trkpt lat="46.457937" lon="18.829363">
        <ele>89.074958</ele>
        <time>2024-07-27T15:23:45.000Z</time>
      </trkpt>
      <trkpt lat="46.4585" lon="18.829342">
        <ele>89.06961</ele>
        <time>2024-07-27T15:23:51.000Z</time>
      </trkpt>
      <trkpt lat="46.457954" lon="18.82936">
        <ele>89.052668</ele>
        <time>2024-07-27T15:23:57.000Z</time>
      </trkpt>
      <trkpt lat="46.457092" lon="18.829409">
        <ele>89.026111</ele>
        <time>2024-07-27T15:24:07.000Z</time>
      </trkpt>
      <trkpt lat="46.454069" lon="18.829574">
        <ele>89.228875</ele>
        <time>2024-07-27T15:24:41.000Z</time>
      </trkpt>
      <trkpt lat="46.453931" lon="18.829582">
        <ele>89.257933</ele>
        <time>2024-07-27T15:24:43.000Z</time>
      </trkpt>
      <trkpt lat="46.451317" lon="18.829776">
        <ele>90.738926</ele>
        <time>2024-07-27T15:25:12.000Z</time>
      </trkpt>
      <trkpt lat="46.450678" lon="18.829719">
        <ele>91.08964</ele>
        <time>2024-07-27T15:25:19.000Z</time>
      </trkpt>
      <trkpt lat="46.450292" lon="18.829597">
        <ele>91.303495</ele>
        <time>2024-07-27T15:25:23.000Z</time>
      </trkpt>
      <trkpt lat="46.449866" lon="18.829283">
        <ele>91.496384</ele>
        <time>2024-07-27T15:25:28.000Z</time>
      </trkpt>
      <trkpt lat="46.449681" lon="18.829111">
        <ele>91.46719</ele>
        <time>2024-07-27T15:25:30.000Z</time>
      </trkpt>
      <trkpt lat="46.449446" lon="18.828927">
        <ele>91.433185</ele>
        <time>2024-07-27T15:25:33.000Z</time>
      </trkpt>
      <trkpt lat="46.449096" lon="18.828476">
        <ele>91.371088</ele>
        <time>2024-07-27T15:25:38.000Z</time>
      </trkpt>
      <trkpt lat="46.448917" lon="18.828156">
        <ele>91.333183</ele>
        <time>2024-07-27T15:25:41.000Z</time>
      </trkpt>
      <trkpt lat="46.448573" lon="18.827241">
        <ele>91.096145</ele>
        <time>2024-07-27T15:25:49.000Z</time>
      </trkpt>
      <trkpt lat="46.448536" lon="18.827156">
        <ele>91.052501</ele>
        <time>2024-07-27T15:25:50.000Z</time>
      </trkpt>
      <trkpt lat="46.44814" lon="18.826151">
        <ele>90.496017</ele>
        <time>2024-07-27T15:25:59.000Z</time>
      </trkpt>
      <trkpt lat="46.447022" lon="18.823281">
        <ele>89.08997</ele>
        <time>2024-07-27T15:26:24.000Z</time>
      </trkpt>
      <trkpt lat="46.446933" lon="18.823079">
        <ele>88.990534</ele>
        <time>2024-07-27T15:26:26.000Z</time>
      </trkpt>
      <trkpt lat="46.446473" lon="18.821881">
        <ele>88.912995</ele>
        <time>2024-07-27T15:26:37.000Z</time>
      </trkpt>
      <trkpt lat="46.446432" lon="18.821783">
        <ele>88.908523</ele>
        <time>2024-07-27T15:26:38.000Z</time>
      </trkpt>
      <trkpt lat="46.445085" lon="18.818338">
        <ele>89.060021</ele>
        <time>2024-07-27T15:27:08.000Z</time>
      </trkpt>
      <trkpt lat="46.444737" lon="18.817556">
        <ele>89.226743</ele>
        <time>2024-07-27T15:27:15.000Z</time>
      </trkpt>
      <trkpt lat="46.442669" lon="18.814714">
        <ele>90.050863</ele>
        <time>2024-07-27T15:27:47.000Z</time>
      </trkpt>
      <trkpt lat="46.440826" lon="18.812133">
        <ele>91.177779</ele>
        <time>2024-07-27T15:28:15.000Z</time>
      </trkpt>
      <trkpt lat="46.439228" lon="18.81004">
        <ele>91.520822</ele>
        <time>2024-07-27T15:28:39.000Z</time>
      </trkpt>
      <trkpt lat="46.434342" lon="18.803349">
        <ele>89.1402</ele>
        <time>2024-07-27T15:29:54.000Z</time>
      </trkpt>
      <trkpt lat="46.433966" lon="18.802883">
        <ele>89.037824</ele>
        <time>2024-07-27T15:29:59.000Z</time>
      </trkpt>
      <trkpt lat="46.430675" lon="18.799725">
        <ele>88.873531</ele>
        <time>2024-07-27T15:30:43.000Z</time>
      </trkpt>
      <trkpt lat="46.430544" lon="18.799598">
        <ele>88.870698</ele>
        <time>2024-07-27T15:30:45.000Z</time>
      </trkpt>
      <trkpt lat="46.429732" lon="18.798807">
        <ele>88.729464</ele>
        <time>2024-07-27T15:30:56.000Z</time>
      </trkpt>
      <trkpt lat="46.42932" lon="18.798348">
        <ele>88.640932</ele>
        <time>2024-07-27T15:31:02.000Z</time>
      </trkpt>
      <trkpt lat="46.427981" lon="18.796586">
        <ele>88.576337</ele>
        <time>2024-07-27T15:31:22.000Z</time>
      </trkpt>
      <trkpt lat="46.427906" lon="18.796461">
        <ele>88.577218</ele>
        <time>2024-07-27T15:31:23.000Z</time>
      </trkpt>
      <trkpt lat="46.427683" lon="18.796203">
        <ele>88.579455</ele>
        <time>2024-07-27T15:31:26.000Z</time>
      </trkpt>
      <trkpt lat="46.426828" lon="18.795062">
        <ele>89.197952</ele>
        <time>2024-07-27T15:31:39.000Z</time>
      </trkpt>
      <trkpt lat="46.425475" lon="18.793333">
        <ele>89.719271</ele>
        <time>2024-07-27T15:31:59.000Z</time>
      </trkpt>
      <trkpt lat="46.426836" lon="18.795054">
        <ele>89.15877</ele>
        <time>2024-07-27T15:32:19.000Z</time>
      </trkpt>
      <trkpt lat="46.427692" lon="18.796194">
        <ele>88.692731</ele>
        <time>2024-07-27T15:32:32.000Z</time>
      </trkpt>
      <trkpt lat="46.427888" lon="18.796471">
        <ele>88.652679</ele>
        <time>2024-07-27T15:32:35.000Z</time>
      </trkpt>
      <trkpt lat="46.427981" lon="18.796575">
        <ele>88.636915</ele>
        <time>2024-07-27T15:32:36.000Z</time>
      </trkpt>
      <trkpt lat="46.429312" lon="18.798347">
        <ele>88.656443</ele>
        <time>2024-07-27T15:32:56.000Z</time>
      </trkpt>
      <trkpt lat="46.429737" lon="18.79882">
        <ele>88.748626</ele>
        <time>2024-07-27T15:33:02.000Z</time>
      </trkpt>
      <trkpt lat="46.430547" lon="18.799597">
        <ele>88.831323</ele>
        <time>2024-07-27T15:33:13.000Z</time>
      </trkpt>
      <trkpt lat="46.430677" lon="18.799736">
        <ele>88.834934</ele>
        <time>2024-07-27T15:33:15.000Z</time>
      </trkpt>
      <trkpt lat="46.433956" lon="18.802896">
        <ele>89.032299</ele>
        <time>2024-07-27T15:33:59.000Z</time>
      </trkpt>
      <trkpt lat="46.434351" lon="18.803349">
        <ele>89.093297</ele>
        <time>2024-07-27T15:34:05.000Z</time>
      </trkpt>
      <trkpt lat="46.439219" lon="18.810048">
        <ele>91.518685</ele>
        <time>2024-07-27T15:35:20.000Z</time>
      </trkpt>
      <trkpt lat="46.440827" lon="18.812133">
        <ele>91.203436</ele>
        <time>2024-07-27T15:35:44.000Z</time>
      </trkpt>
      <trkpt lat="46.442675" lon="18.814706">
        <ele>90.084365</ele>
        <time>2024-07-27T15:36:12.000Z</time>
      </trkpt>
      <trkpt lat="46.444738" lon="18.817545">
        <ele>89.208981</ele>
        <time>2024-07-27T15:36:44.000Z</time>
      </trkpt>
      <trkpt lat="46.445077" lon="18.818343">
        <ele>89.077605</ele>
        <time>2024-07-27T15:36:51.000Z</time>
      </trkpt>
      <trkpt lat="46.446427" lon="18.821777">
        <ele>88.873927</ele>
        <time>2024-07-27T15:37:21.000Z</time>
      </trkpt>
      <trkpt lat="46.446456" lon="18.821875">
        <ele>88.872877</ele>
        <time>2024-07-27T15:37:22.000Z</time>
      </trkpt>
      <trkpt lat="46.446929" lon="18.823063">
        <ele>89.087309</ele>
        <time>2024-07-27T15:37:33.000Z</time>
      </trkpt>
      <trkpt lat="46.447014" lon="18.82329">
        <ele>89.167789</ele>
        <time>2024-07-27T15:37:35.000Z</time>
      </trkpt>
      <trkpt lat="46.448144" lon="18.826153">
        <ele>90.516835</ele>
        <time>2024-07-27T15:38:00.000Z</time>
      </trkpt>
      <trkpt lat="46.448529" lon="18.827163">
        <ele>91.058995</ele>
        <time>2024-07-27T15:38:09.000Z</time>
      </trkpt>
      <trkpt lat="46.448568" lon="18.82724">
        <ele>91.086488</ele>
        <time>2024-07-27T15:38:10.000Z</time>
      </trkpt>
      <trkpt lat="46.448926" lon="18.828151">
        <ele>91.402219</ele>
        <time>2024-07-27T15:38:18.000Z</time>
      </trkpt>
      <trkpt lat="46.449097" lon="18.828476">
        <ele>91.528</ele>
        <time>2024-07-27T15:38:21.000Z</time>
      </trkpt>
      <trkpt lat="46.449447" lon="18.828913">
        <ele>91.734079</ele>
        <time>2024-07-27T15:38:26.000Z</time>
      </trkpt>
      <trkpt lat="46.449666" lon="18.829121">
        <ele>91.781051</ele>
        <time>2024-07-27T15:38:29.000Z</time>
      </trkpt>
      <trkpt lat="46.449532" lon="18.829194">
        <ele>91.755957</ele>
        <time>2024-07-27T15:38:31.000Z</time>
      </trkpt>
      <trkpt lat="46.449467" lon="18.829284">
        <ele>91.74309</ele>
        <time>2024-07-27T15:38:32.000Z</time>
      </trkpt>
      <trkpt lat="46.449396" lon="18.829403">
        <ele>91.725563</ele>
        <time>2024-07-27T15:38:33.000Z</time>
      </trkpt>
      <trkpt lat="46.450238" lon="18.831598">
        <ele>91.374956</ele>
        <time>2024-07-27T15:38:52.000Z</time>
      </trkpt>
      <trkpt lat="46.450538" lon="18.832381">
        <ele>91.160517</ele>
        <time>2024-07-27T15:38:59.000Z</time>
      </trkpt>
      <trkpt lat="46.450728" lon="18.832994">
        <ele>91.001873</ele>
        <time>2024-07-27T15:39:04.000Z</time>
      </trkpt>
      <trkpt lat="46.450803" lon="18.833443">
        <ele>90.892071</ele>
        <time>2024-07-27T15:39:08.000Z</time>
      </trkpt>
      <trkpt lat="46.450836" lon="18.833921">
        <ele>90.813838</ele>
        <time>2024-07-27T15:39:12.000Z</time>
      </trkpt>
      <trkpt lat="46.450796" lon="18.834429">
        <ele>90.731967</ele>
        <time>2024-07-27T15:39:16.000Z</time>
      </trkpt>
      <trkpt lat="46.450639" lon="18.835084">
        <ele>90.623765</ele>
        <time>2024-07-27T15:39:21.000Z</time>
      </trkpt>
      <trkpt lat="46.450281" lon="18.835714">
        <ele>90.49399</ele>
        <time>2024-07-27T15:39:27.000Z</time>
      </trkpt>
      <trkpt lat="46.449899" lon="18.836194">
        <ele>90.58791</ele>
        <time>2024-07-27T15:39:33.000Z</time>
      </trkpt>
      <trkpt lat="46.449714" lon="18.836394">
        <ele>90.647329</ele>
        <time>2024-07-27T15:39:36.000Z</time>
      </trkpt>
      <trkpt lat="46.448954" lon="18.837211">
        <ele>90.900208</ele>
        <time>2024-07-27T15:39:47.000Z</time>
      </trkpt>
      <trkpt lat="46.446094" lon="18.84049">
        <ele>90.988605</ele>
        <time>2024-07-27T15:40:28.000Z</time>
      </trkpt>
      <trkpt lat="46.445928" lon="18.840716">
        <ele>90.951411</ele>
        <time>2024-07-27T15:40:31.000Z</time>
      </trkpt>
      <trkpt lat="46.445894" lon="18.840745">
        <ele>90.942906</ele>
        <time>2024-07-27T15:40:31.000Z</time>
      </trkpt>
      <trkpt lat="46.44571" lon="18.841035">
        <ele>90.841882</ele>
        <time>2024-07-27T15:40:34.000Z</time>
      </trkpt>
      <trkpt lat="46.444445" lon="18.843566">
        <ele>90.074683</ele>
        <time>2024-07-27T15:40:58.000Z</time>
      </trkpt>
      <trkpt lat="46.444244" lon="18.844104">
        <ele>89.94151</ele>
        <time>2024-07-27T15:41:03.000Z</time>
      </trkpt>
      <trkpt lat="46.444148" lon="18.844633">
        <ele>89.822201</ele>
        <time>2024-07-27T15:41:07.000Z</time>
      </trkpt>
      <trkpt lat="46.444152" lon="18.84467">
        <ele>89.814763</ele>
        <time>2024-07-27T15:41:07.000Z</time>
      </trkpt>
      <trkpt lat="46.444143" lon="18.845102">
        <ele>89.738745</ele>
        <time>2024-07-27T15:41:10.000Z</time>
      </trkpt>
      <trkpt lat="46.444217" lon="18.845695">
        <ele>89.729758</ele>
        <time>2024-07-27T15:41:15.000Z</time>
      </trkpt>
      <trkpt lat="46.444407" lon="18.846294">
        <ele>89.719565</ele>
        <time>2024-07-27T15:41:20.000Z</time>
      </trkpt>
      <trkpt lat="46.446831" lon="18.851391">
        <ele>90.064936</ele>
        <time>2024-07-27T15:42:07.000Z</time>
      </trkpt>
      <trkpt lat="46.447075" lon="18.85213">
        <ele>90.012426</ele>
        <time>2024-07-27T15:42:13.000Z</time>
      </trkpt>
      <trkpt lat="46.447129" lon="18.852795">
        <ele>89.921332</ele>
        <time>2024-07-27T15:42:18.000Z</time>
      </trkpt>
      <trkpt lat="46.447119" lon="18.853111">
        <ele>89.880557</ele>
        <time>2024-07-27T15:42:20.000Z</time>
      </trkpt>
      <trkpt lat="46.447048" lon="18.853482">
        <ele>89.827918</ele>
        <time>2024-07-27T15:42:23.000Z</time>
      </trkpt>
      <trkpt lat="46.446957" lon="18.853856">
        <ele>89.775621</ele>
        <time>2024-07-27T15:42:26.000Z</time>
      </trkpt>
      <trkpt lat="46.446715" lon="18.854362">
        <ele>89.702056</ele>
        <time>2024-07-27T15:42:31.000Z</time>
      </trkpt>
      <trkpt lat="46.44653" lon="18.85465">
        <ele>89.660359</ele>
        <time>2024-07-27T15:42:34.000Z</time>
      </trkpt>
      <trkpt lat="46.446219" lon="18.85493">
        <ele>89.603059</ele>
        <time>2024-07-27T15:42:38.000Z</time>
      </trkpt>
      <trkpt lat="46.446187" lon="18.85496">
        <ele>89.596383</ele>
        <time>2024-07-27T15:42:38.000Z</time>
      </trkpt>
      <trkpt lat="46.44473" lon="18.856127">
        <ele>89.594068</ele>
        <time>2024-07-27T15:42:57.000Z</time>
      </trkpt>
      <trkpt lat="46.444154" lon="18.856638">
        <ele>89.716192</ele>
        <time>2024-07-27T15:43:05.000Z</time>
      </trkpt>
      <trkpt lat="46.442214" lon="18.858806">
        <ele>89.793925</ele>
        <time>2024-07-27T15:43:32.000Z</time>
      </trkpt>
      <trkpt lat="46.442088" lon="18.858965">
        <ele>89.765402</ele>
        <time>2024-07-27T15:43:34.000Z</time>
      </trkpt>
      <trkpt lat="46.441255" lon="18.860019">
        <ele>89.584541</ele>
        <time>2024-07-27T15:43:46.000Z</time>
      </trkpt>
      <trkpt lat="46.441087" lon="18.860253">
        <ele>89.546347</ele>
        <time>2024-07-27T15:43:49.000Z</time>
      </trkpt>
      <trkpt lat="46.440745" lon="18.860708">
        <ele>89.597494</ele>
        <time>2024-07-27T15:43:54.000Z</time>
      </trkpt>
      <trkpt lat="46.44007" lon="18.861731">
        <ele>89.713905</ele>
        <time>2024-07-27T15:44:05.000Z</time>
      </trkpt>
      <trkpt lat="46.439199" lon="18.862952">
        <ele>89.792121</ele>
        <time>2024-07-27T15:44:18.000Z</time>
      </trkpt>
      <trkpt lat="46.439124" lon="18.863057">
        <ele>89.796295</ele>
        <time>2024-07-27T15:44:19.000Z</time>
      </trkpt>
      <trkpt lat="46.438877" lon="18.86343">
        <ele>89.810685</ele>
        <time>2024-07-27T15:44:23.000Z</time>
      </trkpt>
      <trkpt lat="46.438657" lon="18.863742">
        <ele>89.823071</ele>
        <time>2024-07-27T15:44:26.000Z</time>
      </trkpt>
      <trkpt lat="46.438444" lon="18.864069">
        <ele>89.84136</ele>
        <time>2024-07-27T15:44:29.000Z</time>
      </trkpt>
      <trkpt lat="46.437882" lon="18.865225">
        <ele>89.924267</ele>
        <time>2024-07-27T15:44:40.000Z</time>
      </trkpt>
      <trkpt lat="46.437875" lon="18.86523">
        <ele>89.925299</ele>
        <time>2024-07-27T15:44:40.000Z</time>
      </trkpt>
      <trkpt lat="46.437232" lon="18.866587">
        <ele>90.088478</ele>
        <time>2024-07-27T15:44:53.000Z</time>
      </trkpt>
      <trkpt lat="46.436076" lon="18.86931">
        <ele>90.595154</ele>
        <time>2024-07-27T15:45:18.000Z</time>
      </trkpt>
      <trkpt lat="46.435869" lon="18.869806">
        <ele>90.68343</ele>
        <time>2024-07-27T15:45:22.000Z</time>
      </trkpt>
      <trkpt lat="46.435882" lon="18.870031">
        <ele>90.718821</ele>
        <time>2024-07-27T15:45:24.000Z</time>
      </trkpt>
      <trkpt lat="46.435959" lon="18.87036">
        <ele>90.772581</ele>
        <time>2024-07-27T15:45:27.000Z</time>
      </trkpt>
      <trkpt lat="46.435992" lon="18.870376">
        <ele>90.778684</ele>
        <time>2024-07-27T15:45:27.000Z</time>
      </trkpt>
      <trkpt lat="46.436047" lon="18.870434">
        <ele>90.791694</ele>
        <time>2024-07-27T15:45:28.000Z</time>
      </trkpt>
      <trkpt lat="46.436512" lon="18.870783">
        <ele>90.8178370199</ele>
        <time>2024-07-27T15:45:34.000Z</time>
      </trkpt>
      <trkpt lat="46.436571" lon="18.870821">
        <ele>90.8210604935</ele>
        <time>2024-07-27T15:45:35.000Z</time>
      </trkpt>
      <trkpt lat="46.437067" lon="18.871245">
        <ele>90.849807784</ele>
        <time>2024-07-27T15:45:41.000Z</time>
      </trkpt>
      <trkpt lat="46.437388" lon="18.871538">
        <ele>90.8687452215</ele>
        <time>2024-07-27T15:45:45.000Z</time>
      </trkpt>
      <trkpt lat="46.437397" lon="18.871525">
        <ele>90.8693793661</ele>
        <time>2024-07-27T15:45:45.000Z</time>
      </trkpt>
    </trkseg>
  </trk>
</gpx>

<!--
Performance optimized by W3 Total Cache. Learn more: https://www.boldgrid.com/w3-total-cache/?utm_source=w3tc&utm_medium=footer_comment&utm_campaign=free_plugin

Page Caching using Disk: Enhanced{w3tc_pagecache_reject_reason} 

Served from: www.aquabike.world @ 2026-05-10 19:07:00 by W3 Total Cache
-->